Time;durP1;ratioP1;P1;durP2;ratioP2;P2;SDS_P1;SDS_P2;PMS_P1;PMS_P2;Temp;Humidity;BMP_temperature;BMP_pressure;BME280_temperature;BME280_humidity;BME280_pressure;Samples;Min_cycle;Max_cycle;Signal;HPM_P1;HPM_P2
2022/03/05 00:00:40;;;;;;;12.38;8.60;;;27.20;99.90;;;;;;5000321;28;20489;-68
2022/03/05 00:03:07;;;;;;;10.20;8.10;;;27.30;99.90;;;;;;5001925;28;20101;-67
2022/03/05 00:05:34;;;;;;;9.93;8.18;;;27.40;99.90;;;;;;4995125;28;20026;-74
2022/03/05 00:08:03;;;;;;;12.15;8.38;;;27.50;99.90;;;;;;4989099;28;20033;-70
2022/03/05 00:10:30;;;;;;;9.20;7.97;;;27.50;99.90;;;;;;5001438;28;20084;-72
2022/03/05 00:12:58;;;;;;;9.55;7.85;;;27.70;99.90;;;;;;4995353;28;20042;-76
2022/03/05 00:15:25;;;;;;;10.15;8.50;;;27.70;99.90;;;;;;4994222;28;20420;-75
2022/03/05 00:17:53;;;;;;;13.15;9.05;;;27.60;99.90;;;;;;4988519;28;20026;-74
2022/03/05 00:20:20;;;;;;;11.38;9.02;;;27.50;99.90;;;;;;4989786;28;20136;-73
2022/03/05 00:22:48;;;;;;;14.25;9.50;;;27.40;99.90;;;;;;4994872;28;20028;-71
2022/03/05 00:25:15;;;;;;;17.90;14.10;;;27.20;99.90;;;;;;4996468;28;20107;-69
2022/03/05 00:27:43;;;;;;;15.82;11.43;;;27.00;99.90;;;;;;4994881;28;20026;-74
2022/03/05 00:30:11;;;;;;;17.67;11.10;;;27.00;99.90;;;;;;4994188;28;20030;-77
2022/03/05 00:32:38;;;;;;;16.08;11.95;;;27.10;99.90;;;;;;4999355;28;20033;-76
2022/03/05 00:35:07;;;;;;;14.50;11.07;;;27.10;99.90;;;;;;4998814;28;20121;-76
2022/03/05 00:37:34;;;;;;;17.48;11.60;;;27.10;99.90;;;;;;4998358;28;20550;-71
2022/03/05 00:40:01;;;;;;;16.60;11.70;;;27.10;99.90;;;;;;5001653;28;20753;-69
2022/03/05 00:42:29;;;;;;;13.82;10.48;;;27.30;99.90;;;;;;4998056;28;20388;-68
2022/03/05 00:44:56;;;;;;;17.55;11.90;;;27.10;99.90;;;;;;5001349;28;20018;-66
2022/03/05 00:47:23;;;;;;;13.07;11.35;;;27.10;99.90;;;;;;4998446;28;20025;-67
2022/03/05 00:49:50;;;;;;;17.30;13.25;;;27.10;99.90;;;;;;4999745;28;20140;-68
2022/03/05 00:52:18;;;;;;;17.13;11.48;;;27.20;99.90;;;;;;4999821;28;20129;-66
2022/03/05 00:54:44;;;;;;;12.25;10.13;;;27.30;99.90;;;;;;4999376;28;20027;-65
2022/03/05 00:57:12;;;;;;;15.43;11.10;;;27.40;99.90;;;;;;4998651;28;20361;-67
2022/03/05 00:59:39;;;;;;;14.13;10.77;;;27.40;99.90;;;;;;4999604;28;20068;-68
2022/03/05 01:02:06;;;;;;;12.45;10.85;;;27.60;99.90;;;;;;4999103;28;20030;-66
2022/03/05 01:04:33;;;;;;;13.10;10.05;;;27.80;99.90;;;;;;4997415;28;20034;-68
2022/03/05 01:07:00;;;;;;;16.38;10.93;;;28.10;99.90;;;;;;4994260;28;20109;-66
2022/03/05 01:09:27;;;;;;;12.18;10.57;;;28.20;99.90;;;;;;4985411;28;20044;-65
2022/03/05 01:11:54;;;;;;;13.55;10.70;;;28.20;99.90;;;;;;4997933;28;20036;-67
2022/03/05 01:14:21;;;;;;;13.88;9.32;;;28.50;99.90;;;;;;4998245;28;20044;-66
2022/03/05 01:16:48;;;;;;;13.70;9.18;;;28.70;99.90;;;;;;4996442;28;20104;-66
2022/03/05 01:19:15;;;;;;;11.85;8.55;;;28.80;99.90;;;;;;4996605;28;20030;-65
2022/03/05 01:21:42;;;;;;;11.82;9.85;;;29.10;99.90;;;;;;4999097;28;20037;-65
2022/03/05 01:24:09;;;;;;;13.48;10.98;;;29.30;99.90;;;;;;5000312;28;20096;-67
2022/03/05 01:26:36;;;;;;;15.82;12.43;;;29.50;99.90;;;;;;5001004;28;20062;-67
2022/03/05 01:29:03;;;;;;;12.52;9.30;;;29.60;99.90;;;;;;4998563;28;20127;-68
2022/03/05 01:31:30;;;;;;;10.07;7.88;;;29.70;99.90;;;;;;4998706;28;20407;-70
2022/03/05 01:33:57;;;;;;;17.35;13.68;;;29.70;99.90;;;;;;5001023;28;20487;-68
2022/03/05 01:36:24;;;;;;;13.30;9.93;;;29.70;99.90;;;;;;4999200;28;20822;-68
2022/03/05 01:38:51;;;;;;;15.02;12.75;;;29.70;99.90;;;;;;4998495;28;20021;-67
2022/03/05 01:41:18;;;;;;;11.90;8.27;;;29.70;99.90;;;;;;4997884;28;20044;-66
2022/03/05 01:43:51;;;;;;;10.52;7.47;;;29.70;99.90;;;;;;4996838;28;20022;-67
2022/03/05 01:46:29;;;;;;;10.25;7.68;;;29.90;99.90;;;;;;4999507;28;20498;-67
2022/03/05 01:48:56;;;;;;;10.30;7.03;;;30.00;99.90;;;;;;5003196;28;20029;-69
2022/03/05 01:51:24;;;;;;;10.48;7.75;;;30.10;99.90;;;;;;4999522;28;20041;-67
2022/03/05 01:53:51;;;;;;;9.57;6.63;;;30.10;99.90;;;;;;4999731;28;20348;-67
2022/03/05 01:56:19;;;;;;;10.15;6.72;;;30.30;99.90;;;;;;4997235;28;20037;-68
2022/03/05 01:58:46;;;;;;;8.63;7.45;;;30.20;99.90;;;;;;4999110;28;20041;-68
2022/03/05 02:01:14;;;;;;;9.38;7.05;;;30.40;99.90;;;;;;4999333;28;20790;-69
2022/03/05 02:03:41;;;;;;;9.98;7.72;;;30.60;99.90;;;;;;5004959;28;20044;-69
2022/03/05 02:06:08;;;;;;;8.95;7.10;;;30.60;99.90;;;;;;4997544;28;20432;-69
2022/03/05 02:08:35;;;;;;;9.35;8.15;;;30.60;99.90;;;;;;4998224;28;20488;-70
2022/03/05 02:11:02;;;;;;;7.32;6.30;;;30.80;99.90;;;;;;5000211;28;20049;-67
2022/03/05 02:13:29;;;;;;;10.43;7.38;;;31.10;99.90;;;;;;5000482;28;20056;-66
2022/03/05 02:15:57;;;;;;;10.20;6.70;;;30.90;99.90;;;;;;5001679;28;20486;-68
2022/03/05 02:18:24;;;;;;;10.85;8.90;;;30.80;99.90;;;;;;4996355;28;20176;-73
2022/03/05 02:20:55;;;;;;;9.07;7.50;;;30.70;99.90;;;;;;4996966;28;20033;-68
2022/03/05 02:23:22;;;;;;;8.90;7.18;;;30.50;99.90;;;;;;4999749;28;20026;-67
2022/03/05 02:25:57;;;;;;;12.48;7.07;;;30.20;99.90;;;;;;5000764;28;20145;-67
2022/03/05 02:28:26;;;;;;;9.80;7.18;;;30.00;99.90;;;;;;5001813;28;20026;-67
2022/03/05 02:30:54;;;;;;;8.18;6.38;;;30.00;99.90;;;;;;4998795;28;20033;-70
2022/03/05 02:33:21;;;;;;;11.35;8.75;;;29.90;99.90;;;;;;4999318;28;20322;-68
2022/03/05 02:35:48;;;;;;;11.63;8.57;;;29.90;99.90;;;;;;4997370;28;20116;-67
2022/03/05 02:38:17;;;;;;;9.90;7.50;;;30.00;99.90;;;;;;4998205;28;20058;-66
2022/03/05 02:40:46;;;;;;;10.40;8.00;;;30.00;99.90;;;;;;4998568;28;20030;-68
2022/03/05 02:43:13;;;;;;;8.80;7.32;;;30.10;99.90;;;;;;4998128;28;20026;-69
2022/03/05 02:45:41;;;;;;;11.85;8.65;;;30.00;99.90;;;;;;4999172;28;20026;-67
2022/03/05 02:48:11;;;;;;;8.75;7.32;;;30.10;99.90;;;;;;4998668;28;20029;-69
2022/03/05 02:50:38;;;;;;;8.15;7.35;;;30.20;99.90;;;;;;4999740;28;20543;-68
2022/03/05 02:53:05;;;;;;;11.05;7.68;;;30.20;99.90;;;;;;4998487;28;20049;-69
2022/03/05 02:55:33;;;;;;;9.02;7.28;;;30.10;99.90;;;;;;4996801;28;20488;-69
2022/03/05 02:58:01;;;;;;;9.60;7.25;;;30.10;99.90;;;;;;4999238;28;20161;-69
2022/03/05 03:00:28;;;;;;;7.95;6.53;;;30.10;99.90;;;;;;4998993;28;20144;-69
2022/03/05 03:02:55;;;;;;;9.40;7.10;;;30.20;99.90;;;;;;4998065;28;20593;-68
2022/03/05 03:05:22;;;;;;;8.23;6.78;;;30.30;99.90;;;;;;4997201;28;20179;-68
2022/03/05 03:07:49;;;;;;;7.85;6.97;;;30.60;99.90;;;;;;4999851;28;20131;-69
2022/03/05 03:10:17;;;;;;;8.60;7.40;;;30.70;99.90;;;;;;4998822;28;20041;-70
2022/03/05 03:12:44;;;;;;;8.70;6.55;;;31.20;99.90;;;;;;4995562;28;20030;-71
2022/03/05 03:15:15;;;;;;;8.35;6.63;;;31.20;99.90;;;;;;3961839;28;10000689;-67
2022/03/05 03:17:46;;;;;;;9.55;6.97;;;31.00;99.90;;;;;;4998514;28;20034;-68
2022/03/05 03:20:18;;;;;;;7.90;5.80;;;31.10;99.90;;;;;;4995084;28;20034;-68
2022/03/05 03:22:46;;;;;;;11.00;7.00;;;31.00;99.90;;;;;;4997073;28;20113;-70
2022/03/05 03:25:13;;;;;;;9.57;7.25;;;31.00;99.90;;;;;;4995532;28;20484;-69
2022/03/05 03:27:40;;;;;;;10.95;7.78;;;31.00;99.90;;;;;;4997407;28;20112;-66
2022/03/05 03:30:10;;;;;;;9.77;7.63;;;31.10;99.90;;;;;;4996129;28;20038;-67
2022/03/05 03:32:38;;;;;;;12.18;7.97;;;31.00;99.90;;;;;;4996852;28;20037;-67
2022/03/05 03:35:07;;;;;;;9.35;7.28;;;31.10;99.90;;;;;;4994866;28;20029;-68
2022/03/05 03:37:35;;;;;;;7.78;6.30;;;31.30;99.90;;;;;;4995059;28;20042;-69
2022/03/05 03:40:05;;;;;;;10.15;6.75;;;31.50;99.90;;;;;;4993608;28;20037;-68
2022/03/05 03:42:32;;;;;;;9.13;7.47;;;31.50;99.90;;;;;;4995463;28;20022;-67
2022/03/05 03:44:59;;;;;;;8.63;7.00;;;32.00;99.90;;;;;;4995581;28;20022;-67
2022/03/05 03:47:26;;;;;;;10.07;7.30;;;32.50;99.90;;;;;;4995389;28;20022;-71
2022/03/05 03:49:53;;;;;;;10.65;8.13;;;32.50;99.90;;;;;;4997409;28;20614;-70
2022/03/05 03:52:20;;;;;;;9.43;7.15;;;32.50;99.90;;;;;;4996127;28;20029;-70
2022/03/05 03:54:50;;;;;;;7.85;7.05;;;32.40;99.90;;;;;;4998470;28;20128;-68
2022/03/05 03:57:17;;;;;;;8.07;6.60;;;32.30;99.90;;;;;;4994297;28;20022;-68
2022/03/05 03:59:46;;;;;;;8.90;7.43;;;32.10;99.90;;;;;;4995334;28;20026;-70
2022/03/05 04:02:14;;;;;;;8.02;7.05;;;32.00;99.90;;;;;;4995200;28;20052;-69
2022/03/05 04:04:41;;;;;;;10.50;7.53;;;31.70;99.90;;;;;;4996621;28;20577;-71
2022/03/05 04:09:54;;;;;;;12.82;8.35;;;31.80;99.90;;;;;;4996170;28;20033;-69
2022/03/05 04:12:22;;;;;;;10.13;8.57;;;31.80;99.90;;;;;;4994026;28;20040;-71
2022/03/05 04:14:49;;;;;;;11.35;8.75;;;31.70;99.90;;;;;;4994426;28;20049;-70
2022/03/05 04:17:16;;;;;;;8.82;7.85;;;32.10;99.90;;;;;;4994797;28;20071;-69
2022/03/05 04:19:44;;;;;;;10.38;9.23;;;32.80;99.90;;;;;;4995921;28;20107;-70
2022/03/05 04:22:11;;;;;;;9.25;7.35;;;33.30;99.90;;;;;;4993039;28;20018;-73
2022/03/05 04:24:38;;;;;;;8.90;8.00;;;33.80;99.90;;;;;;4994163;28;20112;-67
2022/03/05 04:27:05;;;;;;;8.23;6.88;;;33.70;99.90;;;;;;4996425;28;20104;-73
2022/03/05 04:29:33;;;;;;;9.25;7.30;;;33.60;99.90;;;;;;4995040;28;20034;-71
2022/03/05 04:32:00;;;;;;;10.73;7.45;;;34.20;99.90;;;;;;4994801;28;20065;-70
2022/03/05 04:34:27;;;;;;;10.25;7.65;;;34.80;99.90;;;;;;4993981;28;20032;-69
2022/03/05 04:36:54;;;;;;;8.90;7.57;;;34.70;99.90;;;;;;4994105;28;20046;-71
2022/03/05 04:39:22;;;;;;;8.60;7.15;;;34.60;99.90;;;;;;4993501;28;20223;-68
2022/03/05 04:41:49;;;;;;;8.90;7.43;;;34.50;99.90;;;;;;4994776;28;20488;-67
2022/03/05 04:44:16;;;;;;;10.07;8.20;;;34.20;99.90;;;;;;4995351;28;20122;-66
2022/03/05 04:46:43;;;;;;;8.65;7.68;;;33.80;99.90;;;;;;4994950;28;20550;-66
2022/03/05 04:49:10;;;;;;;10.40;8.52;;;33.20;99.90;;;;;;4994658;28;20049;-71
2022/03/05 04:51:37;;;;;;;9.02;8.10;;;32.70;99.90;;;;;;4994144;28;20026;-70
2022/03/05 04:54:04;;;;;;;8.80;7.93;;;32.40;99.90;;;;;;4992942;28;20030;-66
2022/03/05 04:56:31;;;;;;;16.85;11.50;;;32.10;99.90;;;;;;4993813;28;20033;-68
2022/03/05 04:58:58;;;;;;;13.23;8.52;;;31.90;99.90;;;;;;4993793;28;20029;-66
2022/03/05 05:01:25;;;;;;;11.20;8.55;;;31.40;99.90;;;;;;4993994;28;20034;-67
2022/03/05 05:03:52;;;;;;;11.57;7.95;;;31.20;99.90;;;;;;4993176;28;20386;-68
2022/03/05 05:06:19;;;;;;;11.05;7.85;;;31.00;99.90;;;;;;4989960;28;20036;-68
2022/03/05 05:08:46;;;;;;;8.65;7.40;;;30.90;99.90;;;;;;4992970;28;20018;-70
2022/03/05 05:11:13;;;;;;;8.20;7.10;;;30.90;99.90;;;;;;4993810;28;20037;-70
2022/03/05 05:13:40;;;;;;;10.57;7.60;;;30.80;99.90;;;;;;4993857;28;20026;-68
2022/03/05 05:16:08;;;;;;;10.02;7.80;;;30.60;99.90;;;;;;4992657;28;20030;-68
2022/03/05 05:18:35;;;;;;;13.55;8.48;;;30.70;99.90;;;;;;4992777;28;20022;-68
2022/03/05 05:21:02;;;;;;;11.15;7.53;;;30.60;99.90;;;;;;4993120;28;20041;-67
2022/03/05 05:23:29;;;;;;;8.55;7.32;;;30.60;99.90;;;;;;4993513;28;20787;-70
2022/03/05 05:25:56;;;;;;;11.30;7.75;;;30.60;99.90;;;;;;4994257;28;20038;-69
2022/03/05 05:28:23;;;;;;;9.73;8.25;;;30.30;99.90;;;;;;4993894;28;20116;-67
2022/03/05 05:30:50;;;;;;;8.20;7.32;;;30.10;99.90;;;;;;4994968;28;20034;-68
2022/03/05 05:33:17;;;;;;;11.20;7.97;;;30.10;99.90;;;;;;4995111;28;20021;-68
2022/03/05 05:35:44;;;;;;;9.40;8.50;;;30.00;99.90;;;;;;4994429;28;20063;-67
2022/03/05 05:38:11;;;;;;;11.57;8.07;;;30.00;99.90;;;;;;4997424;28;20148;-68
2022/03/05 05:40:38;;;;;;;8.93;7.82;;;29.90;99.90;;;;;;4997955;28;20068;-66
2022/03/05 05:43:05;;;;;;;11.95;8.45;;;29.80;99.90;;;;;;4997652;28;20030;-68
2022/03/05 05:45:32;;;;;;;10.43;7.70;;;29.60;99.90;;;;;;4996674;28;20041;-68
2022/03/05 05:47:59;;;;;;;8.50;7.70;;;29.70;99.90;;;;;;4997979;28;20836;-67
2022/03/05 05:50:26;;;;;;;11.93;8.65;;;29.50;99.90;;;;;;4996536;28;20060;-66
2022/03/05 05:52:53;;;;;;;9.82;8.73;;;29.50;99.90;;;;;;4995593;28;20038;-68
2022/03/05 05:55:20;;;;;;;10.20;8.45;;;29.40;99.90;;;;;;4995727;28;20196;-67
2022/03/05 05:57:47;;;;;;;10.43;7.78;;;29.30;99.90;;;;;;4997402;28;20120;-66
2022/03/05 06:00:14;;;;;;;10.30;7.90;;;29.30;99.90;;;;;;4996470;28;20802;-67
2022/03/05 06:02:41;;;;;;;10.77;8.57;;;29.30;99.90;;;;;;4996804;28;20111;-70
2022/03/05 06:05:08;;;;;;;10.10;8.98;;;29.30;99.90;;;;;;4995448;28;20029;-73
2022/03/05 06:07:35;;;;;;;9.38;8.43;;;29.10;99.90;;;;;;4996614;28;20397;-66
2022/03/05 06:10:03;;;;;;;11.45;9.13;;;29.10;99.90;;;;;;4998618;28;20029;-71
2022/03/05 06:12:30;;;;;;;8.77;7.88;;;29.10;99.90;;;;;;5000853;28;20030;-70
2022/03/05 06:14:57;;;;;;;10.35;8.73;;;29.00;99.90;;;;;;5000710;28;20216;-68
2022/03/05 06:17:24;;;;;;;8.95;8.05;;;28.80;99.90;;;;;;5001358;28;20026;-70
2022/03/05 06:19:51;;;;;;;10.27;8.05;;;28.70;99.90;;;;;;5002115;28;20049;-67
2022/03/05 06:22:18;;;;;;;8.40;7.53;;;28.70;99.90;;;;;;5001331;28;20091;-71
2022/03/05 06:24:45;;;;;;;10.00;7.57;;;28.70;99.90;;;;;;5001611;28;20030;-68
2022/03/05 06:27:12;;;;;;;9.00;8.18;;;28.70;99.90;;;;;;5000851;28;20030;-66
2022/03/05 06:29:39;;;;;;;13.05;8.98;;;28.70;99.90;;;;;;5001601;28;20029;-70
2022/03/05 06:32:06;;;;;;;10.52;9.13;;;28.80;99.90;;;;;;5001976;28;20056;-67
2022/03/05 06:34:33;;;;;;;11.25;7.53;;;28.80;99.90;;;;;;5001404;28;20056;-70
2022/03/05 06:37:03;;;;;;;8.57;7.63;;;28.60;99.90;;;;;;5000662;28;20536;-68
2022/03/05 06:39:30;;;;;;;8.80;6.93;;;28.50;99.90;;;;;;4999424;28;20395;-67
2022/03/05 06:41:57;;;;;;;11.65;7.68;;;28.30;99.90;;;;;;5001487;28;20465;-68
2022/03/05 06:44:24;;;;;;;10.90;7.15;;;28.30;99.90;;;;;;5002412;28;20053;-67
2022/03/05 06:46:51;;;;;;;10.80;7.53;;;28.20;99.90;;;;;;4999783;28;20022;-66
2022/03/05 06:49:18;;;;;;;9.35;7.15;;;28.20;99.90;;;;;;5000419;28;20135;-70
2022/03/05 06:51:45;;;;;;;8.45;7.47;;;28.10;99.90;;;;;;4998073;28;20029;-68
2022/03/05 06:54:12;;;;;;;10.55;8.43;;;28.00;99.90;;;;;;4998391;28;20136;-67
2022/03/05 06:56:39;;;;;;;7.82;7.00;;;27.90;99.90;;;;;;4997540;28;20033;-72
2022/03/05 06:59:06;;;;;;;8.18;7.35;;;27.90;99.90;;;;;;4997596;28;20030;-68
2022/03/05 07:01:34;;;;;;;11.27;7.43;;;27.70;99.90;;;;;;4998504;28;20045;-68
2022/03/05 07:04:00;;;;;;;11.02;7.28;;;27.70;99.90;;;;;;4997213;28;20076;-67
2022/03/05 07:06:27;;;;;;;9.52;8.27;;;27.60;99.90;;;;;;4996623;28;20100;-66
2022/03/05 07:08:54;;;;;;;9.73;8.10;;;27.30;99.90;;;;;;4999621;28;20037;-68
2022/03/05 07:11:21;;;;;;;12.45;8.35;;;27.20;99.90;;;;;;4999299;28;20033;-68
2022/03/05 07:13:48;;;;;;;9.25;7.40;;;27.20;99.90;;;;;;5001211;28;20033;-67
2022/03/05 07:16:15;;;;;;;9.07;7.50;;;27.10;99.90;;;;;;5000544;28;20018;-68
2022/03/05 07:18:42;;;;;;;9.68;8.38;;;26.90;99.90;;;;;;5003777;28;20186;-68
2022/03/05 07:21:09;;;;;;;11.90;8.80;;;27.00;99.90;;;;;;5004164;28;20373;-69
2022/03/05 07:23:36;;;;;;;9.48;8.18;;;26.90;99.90;;;;;;5001920;28;20064;-68
2022/03/05 07:26:03;;;;;;;8.65;6.72;;;26.90;99.90;;;;;;5006572;28;20390;-67
2022/03/05 07:28:30;;;;;;;11.10;8.38;;;26.80;99.90;;;;;;5003949;28;20033;-69
2022/03/05 07:30:57;;;;;;;10.55;7.30;;;26.80;99.90;;;;;;4999599;28;20029;-69
2022/03/05 07:33:26;;;;;;;9.02;7.00;;;26.70;99.90;;;;;;5000230;28;20033;-67
2022/03/05 07:35:54;;;;;;;8.20;6.45;;;26.70;99.90;;;;;;4999082;28;20030;-73
2022/03/05 07:38:21;;;;;;;10.60;6.90;;;26.70;99.90;;;;;;4998836;28;20065;-75
2022/03/05 07:40:48;;;;;;;9.63;5.60;;;26.60;99.90;;;;;;5000009;28;20026;-68
2022/03/05 07:43:15;;;;;;;7.95;6.13;;;26.60;99.90;;;;;;5000577;28;20053;-71
2022/03/05 07:45:42;;;;;;;7.47;6.10;;;26.50;99.90;;;;;;4999261;28;20067;-68
2022/03/05 07:48:09;;;;;;;7.78;5.65;;;26.50;99.90;;;;;;5002584;28;20069;-68
2022/03/05 07:50:37;;;;;;;7.53;5.07;;;26.40;99.90;;;;;;4997833;28;20026;-66
2022/03/05 07:53:04;;;;;;;6.35;5.22;;;26.40;99.90;;;;;;4999171;28;20535;-68
2022/03/05 07:55:31;;;;;;;8.75;5.68;;;26.30;99.90;;;;;;4999242;28;20080;-66
2022/03/05 07:57:58;;;;;;;9.45;6.13;;;26.10;99.90;;;;;;4997851;28;20022;-65
2022/03/05 08:00:25;;;;;;;8.07;7.03;;;26.10;99.90;;;;;;4998508;28;20030;-68
2022/03/05 08:02:52;;;;;;;11.80;9.15;;;26.00;99.90;;;;;;4998426;28;20380;-66
2022/03/05 08:05:19;;;;;;;42.88;38.25;;;25.90;99.90;;;;;;4996778;28;20037;-66
2022/03/05 08:07:46;;;;;;;15.10;10.20;;;25.90;99.90;;;;;;4999096;28;20424;-66
2022/03/05 08:10:13;;;;;;;14.38;12.52;;;25.80;99.90;;;;;;5000104;28;20180;-69
2022/03/05 08:12:40;;;;;;;9.80;6.10;;;25.80;99.90;;;;;;5000225;28;20483;-66
2022/03/05 08:15:08;;;;;;;8.85;5.55;;;25.80;99.90;;;;;;4997660;28;20040;-66
2022/03/05 08:17:48;;;;;;;8.00;4.88;;;25.70;99.90;;;;;;5000164;28;20641;-65
2022/03/05 08:20:15;;;;;;;6.85;4.85;;;25.70;99.90;;;;;;5001975;28;20133;-65
2022/03/05 08:22:42;;;;;;;8.45;4.32;;;25.60;99.90;;;;;;4996965;28;20029;-66
2022/03/05 08:25:09;;;;;;;8.65;4.50;;;25.70;99.90;;;;;;4998505;28;20403;-66
2022/03/05 08:27:36;;;;;;;6.32;3.90;;;25.60;99.90;;;;;;4995913;28;20029;-65
2022/03/05 08:30:04;;;;;;;10.45;4.45;;;25.60;99.90;;;;;;4997217;28;20054;-66
2022/03/05 08:32:31;;;;;;;7.70;4.03;;;25.40;99.90;;;;;;4996944;28;20484;-66
2022/03/05 08:34:58;;;;;;;11.30;4.25;;;25.40;99.90;;;;;;4995557;28;20025;-66
2022/03/05 08:37:27;;;;;;;6.95;3.60;;;25.30;99.90;;;;;;4996134;28;20041;-65
2022/03/05 08:39:54;;;;;;;10.85;3.90;;;25.30;99.90;;;;;;4995874;28;20038;-64
2022/03/05 08:42:21;;;;;;;6.13;3.25;;;25.20;99.90;;;;;;4995818;28;20034;-65
2022/03/05 08:44:48;;;;;;;10.32;3.70;;;25.10;99.90;;;;;;4995859;28;20057;-65
2022/03/05 08:47:16;;;;;;;7.45;3.75;;;25.10;99.90;;;;;;4994944;28;20030;-65
2022/03/05 08:49:43;;;;;;;8.73;3.70;;;25.10;99.90;;;;;;4997315;28;20112;-65
2022/03/05 08:52:10;;;;;;;8.45;3.85;;;25.00;99.90;;;;;;4994393;28;20134;-65
2022/03/05 08:54:37;;;;;;;10.57;4.05;;;24.90;99.90;;;;;;4995617;28;20032;-65
2022/03/05 08:57:06;;;;;;;9.45;3.33;;;24.80;99.90;;;;;;4993433;28;20030;-67
2022/03/05 08:59:33;;;;;;;10.63;3.70;;;24.90;99.90;;;;;;4993429;28;20189;-66
2022/03/05 09:02:01;;;;;;;12.60;6.55;;;24.90;99.90;;;;;;4994493;28;20076;-65
2022/03/05 09:04:28;;;;;;;7.75;4.10;;;24.80;99.90;;;;;;4995611;28;20026;-65
2022/03/05 09:06:55;;;;;;;11.55;3.85;;;24.70;99.90;;;;;;4993791;28;20095;-66
2022/03/05 09:09:22;;;;;;;7.90;3.33;;;24.70;99.90;;;;;;4995236;28;20496;-65
2022/03/05 09:11:49;;;;;;;6.10;3.28;;;24.80;99.90;;;;;;4998616;28;20018;-65
2022/03/05 09:14:16;;;;;;;9.13;3.42;;;24.70;99.90;;;;;;4998625;28;20592;-65
2022/03/05 09:16:43;;;;;;;6.47;2.67;;;24.70;99.90;;;;;;4998710;28;20493;-65
2022/03/05 09:19:10;;;;;;;18.17;10.88;;;24.60;99.90;;;;;;4998739;28;20057;-66
2022/03/05 09:21:38;;;;;;;10.93;5.47;;;24.60;99.90;;;;;;4999657;28;20492;-66
2022/03/05 09:24:06;;;;;;;9.27;3.40;;;24.60;99.90;;;;;;4998681;28;20040;-65
2022/03/05 09:26:34;;;;;;;6.53;2.83;;;24.50;99.90;;;;;;4997780;28;20686;-66
2022/03/05 09:29:01;;;;;;;5.70;2.67;;;24.50;99.90;;;;;;4997596;28;20109;-65
2022/03/05 09:31:28;;;;;;;9.30;3.03;;;24.40;99.90;;;;;;5000014;28;20117;-64
2022/03/05 09:33:55;;;;;;;7.35;2.90;;;24.40;99.90;;;;;;5001291;28;20088;-65
2022/03/05 09:36:22;;;;;;;5.85;2.92;;;24.30;99.90;;;;;;5001447;28;20412;-63
2022/03/05 09:38:49;;;;;;;8.45;3.28;;;24.20;99.90;;;;;;5002281;28;20868;-66
2022/03/05 09:41:17;;;;;;;9.80;3.30;;;24.10;99.90;;;;;;4999727;28;20034;-66
2022/03/05 09:43:44;;;;;;;10.10;3.03;;;24.10;99.90;;;;;;5000126;28;20346;-66
2022/03/05 09:46:12;;;;;;;6.05;2.80;;;24.10;99.90;;;;;;5000932;28;20057;-66
2022/03/05 09:48:43;;;;;;;8.38;3.38;;;24.10;99.90;;;;;;5002194;28;20084;-66
2022/03/05 09:51:10;;;;;;;8.98;4.45;;;24.10;99.90;;;;;;5000232;28;20033;-65
2022/03/05 09:53:37;;;;;;;13.70;5.32;;;24.10;99.90;;;;;;5000446;28;20018;-66
2022/03/05 09:56:04;;;;;;;9.13;3.13;;;24.10;99.90;;;;;;5000157;28;20045;-67
2022/03/05 09:58:31;;;;;;;7.18;2.83;;;24.10;99.90;;;;;;5001280;28;20022;-65
2022/03/05 10:00:58;;;;;;;8.85;2.97;;;24.10;99.90;;;;;;5001006;28;20025;-66
2022/03/05 10:03:27;;;;;;;7.43;2.65;;;24.10;99.90;;;;;;4999175;28;20072;-67
2022/03/05 10:06:21;;;;;;;6.68;2.55;;;24.00;99.90;;;;;;4997826;28;20034;-66
2022/03/05 10:08:51;;;;;;;8.82;3.85;;;24.00;99.90;;;;;;4999913;28;20026;-67
2022/03/05 10:11:19;;;;;;;11.35;4.70;;;24.10;99.90;;;;;;5000234;28;20070;-67
2022/03/05 10:13:46;;;;;;;14.13;5.00;;;24.00;99.90;;;;;;5000052;28;20129;-67
2022/03/05 10:16:26;;;;;;;5.93;3.42;;;24.10;99.90;;;;;;4998252;28;20081;-66
2022/03/05 10:18:53;;;;;;;7.05;2.92;;;24.10;99.90;;;;;;4997740;28;20037;-65
2022/03/05 10:21:31;;;;;;;7.15;2.72;;;24.10;99.90;;;;;;4998862;28;20030;-65
2022/03/05 10:24:07;;;;;;;6.18;2.47;;;24.10;99.90;;;;;;5001738;28;20045;-67
2022/03/05 10:26:51;;;;;;;7.22;2.53;;;24.20;99.90;;;;;;5000274;28;20055;-67
2022/03/05 10:29:23;;;;;;;6.40;1.80;;;24.20;99.90;;;;;;4998945;28;20026;-68
2022/03/05 10:31:57;;;;;;;;;;;24.10;99.90;;;;;;4999026;28;20045;-68
2022/03/05 10:34:25;;;;;;;2.67;0.90;;;23.60;99.90;;;;;;4998947;28;19920;-66
2022/03/05 10:37:03;;;;;;;3.95;1.00;;;23.00;99.90;;;;;;5002743;23;20416;-64
2022/03/05 10:39:30;;;;;;;2.78;0.88;;;22.50;99.90;;;;;;4986530;28;20022;-64
2022/03/05 10:41:57;;;;;;;7.57;1.10;;;22.00;99.90;;;;;;4986422;28;20030;-65
2022/03/05 10:44:25;;;;;;;4.15;1.05;;;21.70;99.90;;;;;;4986421;28;20022;-66
2022/03/05 10:47:01;;;;;;;3.95;0.95;;;21.50;99.90;;;;;;4986432;28;20034;-66
2022/03/05 10:49:29;;;;;;;4.40;1.20;;;21.20;99.90;;;;;;4976617;28;20073;-67
2022/03/05 10:52:05;;;;;;;5.50;1.40;;;20.90;99.90;;;;;;4975654;28;20050;-70
2022/03/05 10:54:43;;;;;;;4.88;1.35;;;20.80;99.90;;;;;;4975322;28;20042;-69
2022/03/05 10:57:11;;;;;;;8.98;1.73;;;20.60;99.90;;;;;;4978544;28;20491;-69
2022/03/05 10:59:46;;;;;;;5.93;1.58;;;20.50;99.90;;;;;;4977980;28;20026;-70
2022/03/05 11:02:16;;;;;;;8.15;2.00;;;20.30;99.90;;;;;;4972309;28;20030;-69
2022/03/05 11:04:44;;;;;;;2.55;1.10;;;20.10;99.90;;;;;;4979207;28;20376;-72
2022/03/05 11:07:12;;;;;;;4.53;1.65;;;20.00;99.90;;;;;;4969941;28;20038;-73
2022/03/05 11:09:42;;;;;;;5.97;1.77;;;19.90;99.90;;;;;;4975966;28;20038;-67
2022/03/05 11:12:17;;;;;;;3.38;1.20;;;19.90;99.90;;;;;;4984490;28;20165;-67
2022/03/05 11:14:51;;;;;;;4.82;1.30;;;19.80;99.90;;;;;;4973625;28;20027;-66
2022/03/05 11:17:19;;;;;;;5.03;1.45;;;19.80;99.90;;;;;;4971172;28;20039;-67
2022/03/05 11:19:50;;;;;;;2.33;1.05;;;19.80;99.90;;;;;;4972958;28;20045;-67
2022/03/05 11:22:17;;;;;;;5.68;1.40;;;19.80;99.90;;;;;;4973298;28;20073;-74
2022/03/05 11:24:45;;;;;;;4.25;1.95;;;19.80;99.90;;;;;;4977105;28;20027;-68
2022/03/05 11:27:16;;;;;;;5.75;2.22;;;19.80;99.90;;;;;;4971564;28;20046;-72
2022/03/05 11:29:54;;;;;;;4.55;2.25;;;19.80;99.90;;;;;;4970966;28;20401;-73
2022/03/05 11:32:21;;;;;;;6.75;2.90;;;19.80;99.90;;;;;;4974198;28;20026;-69
2022/03/05 11:34:52;;;;;;;6.35;3.08;;;19.80;99.90;;;;;;4978734;28;20057;-70
2022/03/05 11:37:29;;;;;;;6.70;2.85;;;19.80;99.90;;;;;;4977597;28;20046;-70
2022/03/05 11:39:56;;;;;;;2.88;1.50;;;19.80;99.90;;;;;;4976261;28;20429;-71
2022/03/05 11:42:34;;;;;;;2.58;1.17;;;19.90;99.90;;;;;;4977260;28;20034;-72
2022/03/05 11:45:21;;;;;;;4.47;1.40;;;19.90;99.90;;;;;;4972044;28;20397;-70
2022/03/05 11:47:48;;;;;;;3.60;1.15;;;19.90;99.90;;;;;;4918887;29;20047;-68
2022/03/05 11:50:16;;;;;;;3.63;1.30;;;19.90;99.90;;;;;;4914154;29;20047;-72
2022/03/05 11:52:43;;;;;;;2.00;1.10;;;19.90;99.90;;;;;;4912571;29;20036;-74
2022/03/05 11:55:15;;;;;;;4.93;1.23;;;19.90;99.90;;;;;;4921947;29;20094;-74
2022/03/05 11:57:51;;;;;;;8.40;1.80;;;19.90;99.90;;;;;;4913820;29;20036;-75
2022/03/05 12:00:29;;;;;;;3.92;1.40;;;19.90;99.90;;;;;;4924823;29;20777;-76
2022/03/05 12:02:58;;;;;;;3.28;1.23;;;19.90;99.90;;;;;;4921055;29;20042;-74
2022/03/05 12:05:41;;;;;;;5.25;1.30;;;19.90;99.90;;;;;;4913804;29;20195;-72
2022/03/05 12:08:25;;;;;;;4.38;1.33;;;19.90;99.90;;;;;;4908221;29;20042;-70
2022/03/05 12:11:16;;;;;;;2.60;0.93;;;19.90;99.90;;;;;;4919628;29;20036;-70
2022/03/05 12:13:55;;;;;;;2.65;1.40;;;19.80;99.90;;;;;;4918943;29;20450;-72
2022/03/05 12:16:27;;;;;;;2.05;1.25;;;19.80;99.90;;;;;;4911249;29;20087;-69
2022/03/05 12:18:58;;;;;;;3.38;1.27;;;19.80;99.90;;;;;;4922433;29;20055;-70
2022/03/05 12:21:30;;;;;;;3.65;1.40;;;19.80;99.90;;;;;;4923371;29;20054;-70
2022/03/05 12:24:07;;;;;;;1.73;0.88;;;19.80;99.90;;;;;;4921828;28;20051;-72
2022/03/05 12:26:37;;;;;;;2.13;0.95;;;19.70;99.90;;;;;;4981430;28;20063;-68
2022/03/05 12:29:06;;;;;;;1.02;0.80;;;19.70;99.90;;;;;;4970920;28;20034;-71
2022/03/05 12:31:33;;;;;;;2.72;0.90;;;19.80;99.90;;;;;;4978796;28;20030;-69
2022/03/05 12:34:00;;;;;;;3.47;1.17;;;19.80;99.90;;;;;;4977654;28;20547;-68
2022/03/05 12:36:28;;;;;;;4.32;2.28;;;19.80;99.90;;;;;;4972983;28;20092;-68
2022/03/05 12:39:00;;;;;;;2.13;1.15;;;19.80;99.90;;;;;;4975234;28;20034;-72
2022/03/05 12:41:27;;;;;;;;;;;19.80;99.90;;;;;;4979265;28;20082;-69
2022/03/05 12:43:58;;;;;;;2.42;1.42;;;19.80;99.90;;;;;;4969515;28;20409;-69
2022/03/05 12:46:25;;;;;;;4.00;2.67;;;19.80;99.90;;;;;;4973391;28;20074;-70
2022/03/05 12:48:52;;;;;;;2.72;1.90;;;19.80;99.90;;;;;;4982698;28;20116;-70
2022/03/05 12:51:23;;;;;;;3.95;1.20;;;19.90;99.90;;;;;;4973956;28;20063;-72